Time;durP1;ratioP1;P1;durP2;ratioP2;P2;SDS_P1;SDS_P2;PMS_P1;PMS_P2;Temp;Humidity;BMP_temperature;BMP_pressure;BME280_temperature;BME280_humidity;BME280_pressure;Samples;Min_cycle;Max_cycle;Signal;HPM_P1;HPM_P2
2022/07/28 00:00:35;;;;;;;5.85;2.03;;;;;;;;;;4994557;28;20370;-62
2022/07/28 00:03:01;;;;;;;6.78;1.85;;;;;;;;;;4994555;28;20057;-62
2022/07/28 00:05:27;;;;;;;2.25;1.90;;;;;;;;;;4994492;28;20108;-62
2022/07/28 00:07:53;;;;;;;4.30;1.90;;;;;;;;;;4994301;28;20082;-62
2022/07/28 00:10:19;;;;;;;5.95;2.00;;;;;;;;;;4994444;28;20112;-62
2022/07/28 00:12:46;;;;;;;4.70;1.95;;;;;;;;;;4994770;28;20428;-62
2022/07/28 00:15:12;;;;;;;3.55;2.03;;;;;;;;;;4994223;28;20191;-62
2022/07/28 00:17:38;;;;;;;5.60;1.92;;;;;;;;;;4994521;28;20049;-62
2022/07/28 00:20:05;;;;;;;3.42;1.80;;;;;;;;;;4994396;28;20448;-62
2022/07/28 00:22:31;;;;;;;3.95;1.70;;;;;;;;;;4994068;28;20083;-62
2022/07/28 00:24:57;;;;;;;4.45;1.83;;;;;;;;;;4994214;28;20377;-62
2022/07/28 00:27:23;;;;;;;2.85;1.88;;;;;;;;;;4994350;28;20516;-62
2022/07/28 00:29:49;;;;;;;6.55;2.15;;;;;;;;;;4993863;28;20057;-62
2022/07/28 00:32:15;;;;;;;3.60;1.85;;;;;;;;;;4994338;28;20156;-62
2022/07/28 00:34:42;;;;;;;2.75;2.28;;;;;;;;;;4994162;28;20617;-62
2022/07/28 00:37:08;;;;;;;3.50;1.98;;;;;;;;;;4993818;28;20510;-62
2022/07/28 00:39:34;;;;;;;4.05;2.05;;;;;;;;;;4993943;28;20086;-62
2022/07/28 00:42:00;;;;;;;3.05;2.13;;;;;;;;;;4993717;28;20038;-62
2022/07/28 00:44:26;;;;;;;5.88;2.47;;;;;;;;;;4993585;28;20050;-62
2022/07/28 00:46:52;;;;;;;5.32;2.15;;;;;;;;;;4993627;28;20065;-62
2022/07/28 00:49:18;;;;;;;4.82;2.55;;;;;;;;;;4993903;28;20058;-62
2022/07/28 00:51:45;;;;;;;4.60;2.45;;;;;;;;;;4992797;28;20089;-62
2022/07/28 00:54:11;;;;;;;5.60;2.35;;;;;;;;;;4993521;28;20069;-62
2022/07/28 00:56:37;;;;;;;5.47;2.25;;;;;;;;;;4993215;28;20418;-62
2022/07/28 00:59:04;;;;;;;5.55;2.40;;;;;;;;;;4992738;28;20096;-62
2022/07/28 01:01:30;;;;;;;4.93;2.30;;;;;;;;;;4993158;28;20105;-62
2022/07/28 01:04:00;;;;;;;4.65;2.30;;;;;;;;;;4993177;28;20483;-62
2022/07/28 01:06:29;;;;;;;4.97;2.47;;;;;;;;;;4992766;28;20061;-62
2022/07/28 01:09:10;;;;;;;5.95;2.28;;;;;;;;;;4993619;28;20046;-62
2022/07/28 01:11:39;;;;;;;5.85;2.63;;;;;;;;;;4993565;28;20050;-62
2022/07/28 01:14:28;;;;;;;3.72;2.10;;;;;;;;;;4993137;28;20054;-62
2022/07/28 01:17:00;;;;;;;3.85;2.25;;;;;;;;;;4993424;28;20129;-62
2022/07/28 01:19:35;;;;;;;5.15;2.10;;;;;;;;;;4993435;28;20046;-62
2022/07/28 01:22:02;;;;;;;5.70;2.38;;;;;;;;;;4992752;28;20058;-62
2022/07/28 01:24:39;;;;;;;2.80;2.15;;;;;;;;;;4993242;28;20046;-62
2022/07/28 01:27:10;;;;;;;3.97;2.10;;;;;;;;;;4993080;28;20089;-62
2022/07/28 01:29:49;;;;;;;3.15;2.50;;;;;;;;;;4992854;28;20066;-62
2022/07/28 01:32:21;;;;;;;4.88;2.15;;;;;;;;;;4993264;28;20393;-62
2022/07/28 01:34:53;;;;;;;4.70;2.63;;;;;;;;;;4993214;28;20049;-62
2022/07/28 01:37:23;;;;;;;3.20;2.10;;;;;;;;;;4975111;28;20066;-62
2022/07/28 01:39:52;;;;;;;3.30;2.20;;;;;;;;;;4992971;28;20042;-62
2022/07/28 01:42:20;;;;;;;4.10;2.22;;;;;;;;;;4975849;28;20125;-62
2022/07/28 01:44:47;;;;;;;4.13;2.22;;;;;;;;;;4992360;28;20042;-62
2022/07/28 01:47:14;;;;;;;2.80;2.00;;;;;;;;;;4992506;28;20375;-62
2022/07/28 01:49:40;;;;;;;2.88;2.10;;;;;;;;;;4992972;28;20125;-62
2022/07/28 01:52:08;;;;;;;4.22;2.20;;;;;;;;;;4992157;28;20042;-62
2022/07/28 01:54:36;;;;;;;7.15;2.28;;;;;;;;;;4992438;28;20104;-62
2022/07/28 01:57:03;;;;;;;3.03;1.90;;;;;;;;;;4992832;28;20048;-62
2022/07/28 01:59:30;;;;;;;3.17;2.47;;;;;;;;;;4992287;28;20038;-62
2022/07/28 02:01:56;;;;;;;3.97;2.20;;;;;;;;;;4992720;28;20069;-62
2022/07/28 02:04:23;;;;;;;5.55;2.60;;;;;;;;;;4992486;28;20038;-62
2022/07/28 02:06:50;;;;;;;3.90;2.30;;;;;;;;;;4992093;28;20511;-62
2022/07/28 02:09:16;;;;;;;4.93;2.63;;;;;;;;;;4992616;28;20045;-62
2022/07/28 02:11:44;;;;;;;4.07;2.50;;;;;;;;;;4992568;28;20034;-62
2022/07/28 02:14:12;;;;;;;5.05;2.42;;;;;;;;;;4992149;28;20042;-62
2022/07/28 02:16:40;;;;;;;4.15;2.30;;;;;;;;;;4992051;28;20042;-62
2022/07/28 02:19:07;;;;;;;4.78;2.45;;;;;;;;;;4992426;28;20139;-62
2022/07/28 02:21:34;;;;;;;4.18;2.22;;;;;;;;;;4991874;28;20134;-62
2022/07/28 02:24:00;;;;;;;3.03;2.20;;;;;;;;;;4992382;28;20137;-62
2022/07/28 02:26:28;;;;;;;4.03;2.10;;;;;;;;;;4992137;28;20125;-62
2022/07/28 02:28:56;;;;;;;3.78;2.22;;;;;;;;;;4991678;28;20049;-62
2022/07/28 02:31:25;;;;;;;3.35;2.63;;;;;;;;;;4992270;28;20038;-62
2022/07/28 02:33:54;;;;;;;3.25;1.95;;;;;;;;;;4992275;28;20040;-62
2022/07/28 02:36:25;;;;;;;3.05;2.35;;;;;;;;;;4991669;28;20061;-62
2022/07/28 02:38:54;;;;;;;4.15;2.55;;;;;;;;;;4992068;28;20046;-62
2022/07/28 02:41:26;;;;;;;6.53;2.20;;;;;;;;;;4992089;28;20449;-62
2022/07/28 02:43:54;;;;;;;2.45;2.00;;;;;;;;;;4991609;28;20042;-62
2022/07/28 02:46:24;;;;;;;3.88;2.38;;;;;;;;;;4991540;28;20043;-62
2022/07/28 02:48:54;;;;;;;3.67;2.50;;;;;;;;;;4992152;28;20097;-62
2022/07/28 02:51:23;;;;;;;2.92;2.22;;;;;;;;;;4991587;28;20065;-62
2022/07/28 02:53:49;;;;;;;6.65;2.50;;;;;;;;;;4992038;28;20529;-62
2022/07/28 02:56:16;;;;;;;5.30;2.38;;;;;;;;;;4991615;28;20082;-62
2022/07/28 02:58:43;;;;;;;4.65;2.58;;;;;;;;;;4991620;28;20117;-62
2022/07/28 03:01:09;;;;;;;3.67;2.63;;;;;;;;;;4992011;28;20035;-62
2022/07/28 03:03:35;;;;;;;4.68;3.20;;;;;;;;;;4991700;28;20042;-62
2022/07/28 03:06:01;;;;;;;5.20;3.28;;;;;;;;;;4995089;28;20049;-62
2022/07/28 03:08:28;;;;;;;4.78;3.10;;;;;;;;;;4995964;28;20097;-62
2022/07/28 03:11:13;;;;;;;7.93;2.83;;;;;;;;;;4995864;28;20043;-62
2022/07/28 03:13:39;;;;;;;5.80;2.92;;;;;;;;;;4995352;28;20086;-62
2022/07/28 03:16:05;;;;;;;6.30;2.90;;;;;;;;;;4995312;28;20062;-62
2022/07/28 03:18:32;;;;;;;6.35;3.08;;;;;;;;;;4995671;28;20453;-62
2022/07/28 03:20:58;;;;;;;3.55;2.78;;;;;;;;;;4995041;28;20039;-62
2022/07/28 03:23:34;;;;;;;4.68;2.55;;;;;;;;;;4995471;28;20054;-62
2022/07/28 03:26:04;;;;;;;5.53;2.90;;;;;;;;;;4995185;28;20062;-62
2022/07/28 03:28:32;;;;;;;7.13;2.95;;;;;;;;;;4994991;28;20053;-62
2022/07/28 03:31:01;;;;;;;3.10;2.80;;;;;;;;;;4995266;28;20481;-62
2022/07/28 03:33:27;;;;;;;7.57;2.80;;;;;;;;;;4995422;28;20046;-62
2022/07/28 03:35:54;;;;;;;6.13;2.80;;;;;;;;;;4994838;28;20046;-62
2022/07/28 03:38:23;;;;;;;4.80;2.70;;;;;;;;;;4995105;28;20048;-62
2022/07/28 03:40:49;;;;;;;4.05;2.67;;;;;;;;;;4977728;28;20046;-62
2022/07/28 03:43:19;;;;;;;4.65;2.83;;;;;;;;;;4994646;28;20054;-61
2022/07/28 03:45:46;;;;;;;3.90;2.88;;;;;;;;;;4994983;28;20034;-62
2022/07/28 03:48:12;;;;;;;3.75;2.50;;;;;;;;;;4994669;28;20054;-62
2022/07/28 03:50:38;;;;;;;3.20;2.58;;;;;;;;;;4994584;28;20133;-62
2022/07/28 03:53:08;;;;;;;3.42;2.20;;;;;;;;;;4995001;28;20121;-62
2022/07/28 03:55:34;;;;;;;2.70;2.30;;;;;;;;;;4995000;28;20053;-62
2022/07/28 03:58:00;;;;;;;3.22;2.20;;;;;;;;;;4994570;28;20046;-62
2022/07/28 04:00:27;;;;;;;3.15;2.25;;;;;;;;;;4994856;28;20479;-62
2022/07/28 04:02:53;;;;;;;4.40;2.20;;;;;;;;;;4994697;28;20126;-62
2022/07/28 04:05:19;;;;;;;5.55;2.30;;;;;;;;;;4994289;28;20069;-62
2022/07/28 04:07:45;;;;;;;6.40;2.38;;;;;;;;;;4994655;28;20038;-62
2022/07/28 04:10:12;;;;;;;3.45;2.30;;;;;;;;;;4994691;28;20077;-62
2022/07/28 04:12:52;;;;;;;4.53;2.78;;;;;;;;;;4994258;28;20448;-62
2022/07/28 04:15:18;;;;;;;2.95;2.67;;;;;;;;;;4994411;28;20052;-62
2022/07/28 04:17:47;;;;;;;3.70;2.35;;;;;;;;;;4993868;28;20046;-62
2022/07/28 04:20:13;;;;;;;4.90;2.70;;;;;;;;;;4994194;28;20468;-62
2022/07/28 04:22:39;;;;;;;4.93;3.05;;;;;;;;;;4994475;28;20042;-62
2022/07/28 04:25:06;;;;;;;6.50;3.03;;;;;;;;;;4994242;28;20547;-62
2022/07/28 04:27:32;;;;;;;5.22;2.75;;;;;;;;;;4993682;28;20042;-62
2022/07/28 04:29:58;;;;;;;2.80;2.30;;;;;;;;;;4994006;28;20046;-62
2022/07/28 04:32:24;;;;;;;5.35;2.30;;;;;;;;;;4994419;28;20034;-62
2022/07/28 04:34:50;;;;;;;6.30;2.88;;;;;;;;;;4993806;28;20053;-62
2022/07/28 04:37:16;;;;;;;3.60;2.20;;;;;;;;;;4993909;28;20050;-62
2022/07/28 04:39:42;;;;;;;3.83;2.30;;;;;;;;;;4993785;28;20041;-62
2022/07/28 04:42:08;;;;;;;5.15;2.50;;;;;;;;;;4993823;28;20359;-62
2022/07/28 04:44:37;;;;;;;4.68;2.55;;;;;;;;;;4994118;28;20038;-62
2022/07/28 04:47:03;;;;;;;5.43;2.65;;;;;;;;;;4993668;28;20059;-62
2022/07/28 04:49:29;;;;;;;5.35;2.60;;;;;;;;;;4993562;28;20100;-62
2022/07/28 04:51:55;;;;;;;10.63;3.38;;;;;;;;;;4993952;28;20049;-62
2022/07/28 04:54:21;;;;;;;3.33;2.45;;;;;;;;;;4976469;28;20045;-62
2022/07/28 04:56:47;;;;;;;6.97;2.65;;;;;;;;;;4993394;28;20400;-62
2022/07/28 04:59:14;;;;;;;4.05;2.90;;;;;;;;;;4993746;28;20042;-62
2022/07/28 05:01:41;;;;;;;4.18;2.80;;;;;;;;;;4993697;28;20042;-62
2022/07/28 05:04:07;;;;;;;7.35;2.90;;;;;;;;;;4975764;28;20046;-62
2022/07/28 05:06:36;;;;;;;3.17;2.75;;;;;;;;;;4993422;28;20077;-62
2022/07/28 05:09:03;;;;;;;8.65;2.95;;;;;;;;;;4993176;28;20034;-62
2022/07/28 05:11:29;;;;;;;6.78;3.15;;;;;;;;;;4993078;28;20080;-62
2022/07/28 05:13:55;;;;;;;5.28;2.90;;;;;;;;;;4993516;28;20497;-62
2022/07/28 05:16:21;;;;;;;7.28;2.67;;;;;;;;;;4993459;28;20464;-62
2022/07/28 05:18:47;;;;;;;4.55;2.70;;;;;;;;;;4992926;28;20077;-62
2022/07/28 05:21:13;;;;;;;6.10;2.63;;;;;;;;;;4993329;28;20046;-62
2022/07/28 05:23:39;;;;;;;4.80;2.65;;;;;;;;;;4992503;28;20134;-62
2022/07/28 05:26:06;;;;;;;4.88;2.70;;;;;;;;;;4992473;28;20093;-62
2022/07/28 05:28:32;;;;;;;5.10;2.83;;;;;;;;;;4992784;28;20049;-62
2022/07/28 05:30:58;;;;;;;4.43;3.05;;;;;;;;;;4992738;28;20073;-62
2022/07/28 05:33:24;;;;;;;7.78;3.13;;;;;;;;;;4992631;28;20053;-62
2022/07/28 05:35:52;;;;;;;6.18;2.47;;;;;;;;;;4992810;28;20050;-62
2022/07/28 05:38:19;;;;;;;7.63;2.80;;;;;;;;;;4992948;28;20101;-62
2022/07/28 05:40:46;;;;;;;10.10;2.40;;;;;;;;;;4992463;28;20126;-62
2022/07/28 05:43:12;;;;;;;5.57;2.47;;;;;;;;;;4992903;28;20046;-62
2022/07/28 05:45:38;;;;;;;7.28;2.78;;;;;;;;;;4992779;28;20045;-62
2022/07/28 05:48:04;;;;;;;8.90;2.33;;;;;;;;;;4992061;28;20069;-62
2022/07/28 05:50:31;;;;;;;8.98;2.53;;;;;;;;;;4992267;28;20048;-62
2022/07/28 05:52:57;;;;;;;8.07;2.10;;;;;;;;;;4992245;28;20092;-62
2022/07/28 05:55:23;;;;;;;6.57;2.58;;;;;;;;;;4992408;28;20465;-62
2022/07/28 05:57:49;;;;;;;4.47;2.30;;;;;;;;;;4992278;28;20096;-62
2022/07/28 06:00:19;;;;;;;4.22;2.03;;;;;;;;;;4982875;28;20046;-62
2022/07/28 06:02:47;;;;;;;5.43;2.30;;;;;;;;;;4991810;28;20041;-62
2022/07/28 06:05:14;;;;;;;7.60;2.05;;;;;;;;;;4991908;28;20093;-62
2022/07/28 06:07:40;;;;;;;4.35;1.70;;;;;;;;;;4994383;28;20046;-67
2022/07/28 06:10:06;;;;;;;5.95;1.88;;;;;;;;;;4989899;28;20158;-63
2022/07/28 06:12:38;;;;;;;6.20;2.28;;;;;;;;;;4992995;28;20030;-63
2022/07/28 06:15:04;;;;;;;6.35;2.05;;;;;;;;;;4991241;28;20540;-64
2022/07/28 06:17:30;;;;;;;9.75;2.03;;;;;;;;;;4971868;28;20039;-64
2022/07/28 06:19:56;;;;;;;6.28;1.77;;;;;;;;;;4983201;28;20050;-64
2022/07/28 06:22:22;;;;;;;10.73;1.90;;;;;;;;;;4991220;28;20043;-65
2022/07/28 06:24:48;;;;;;;7.78;1.63;;;;;;;;;;4990766;28;20061;-66
2022/07/28 06:27:14;;;;;;;6.82;1.70;;;;;;;;;;4986264;28;20543;-66
2022/07/28 06:29:40;;;;;;;4.35;1.17;;;;;;;;;;4990073;28;20165;-68
2022/07/28 06:32:06;;;;;;;4.80;1.63;;;;;;;;;;4989946;28;20042;-68
2022/07/28 06:34:32;;;;;;;3.92;1.10;;;;;;;;;;4973172;28;20392;-66
2022/07/28 06:36:59;;;;;;;3.83;1.10;;;;;;;;;;4989655;28;20038;-67
2022/07/28 06:39:25;;;;;;;5.82;1.30;;;;;;;;;;4972572;28;20042;-67
2022/07/28 06:41:51;;;;;;;13.63;1.40;;;;;;;;;;4990164;28;20388;-66
2022/07/28 06:44:17;;;;;;;3.88;1.17;;;;;;;;;;4997821;28;20046;-64
2022/07/28 06:46:43;;;;;;;6.57;1.50;;;;;;;;;;4990091;28;20129;-66
2022/07/28 06:49:09;;;;;;;6.53;1.45;;;;;;;;;;4991055;28;20038;-67
2022/07/28 06:51:35;;;;;;;6.22;1.80;;;;;;;;;;4990268;28;20424;-66
2022/07/28 06:54:01;;;;;;;6.50;1.30;;;;;;;;;;4989972;28;20096;-65
2022/07/28 06:56:27;;;;;;;5.25;1.08;;;;;;;;;;4990919;28;20050;-65
2022/07/28 06:58:54;;;;;;;3.85;1.20;;;;;;;;;;4989845;28;20129;-68
2022/07/28 07:01:20;;;;;;;5.80;1.40;;;;;;;;;;4990253;28;20100;-68
2022/07/28 07:03:46;;;;;;;5.13;1.10;;;;;;;;;;4990918;28;20752;-68
2022/07/28 07:06:12;;;;;;;4.10;1.15;;;;;;;;;;4990702;28;20650;-67
2022/07/28 07:08:38;;;;;;;6.70;1.00;;;;;;;;;;4989837;28;20062;-67
2022/07/28 07:11:04;;;;;;;4.10;0.88;;;;;;;;;;4989921;28;20067;-65
2022/07/28 07:13:31;;;;;;;2.88;0.80;;;;;;;;;;4989940;28;20130;-66
2022/07/28 07:15:57;;;;;;;5.28;0.85;;;;;;;;;;4989852;28;20065;-64
2022/07/28 07:18:23;;;;;;;7.00;0.85;;;;;;;;;;4990195;28;20041;-67
2022/07/28 07:20:49;;;;;;;4.35;1.10;;;;;;;;;;5007123;28;20457;-64
2022/07/28 07:23:15;;;;;;;5.35;0.93;;;;;;;;;;4985502;28;20046;-64
2022/07/28 07:25:41;;;;;;;3.95;0.70;;;;;;;;;;5005161;28;20442;-64
2022/07/28 07:28:07;;;;;;;4.35;1.08;;;;;;;;;;4991010;28;20039;-66
2022/07/28 07:30:33;;;;;;;2.83;0.80;;;;;;;;;;4986239;28;20444;-66
2022/07/28 07:32:59;;;;;;;3.65;1.13;;;;;;;;;;4990623;28;20138;-65
2022/07/28 07:35:26;;;;;;;5.70;0.98;;;;;;;;;;4990515;28;20754;-65
2022/07/28 07:37:52;;;;;;;1.75;0.70;;;;;;;;;;4989715;28;20065;-65
2022/07/28 07:40:18;;;;;;;3.53;1.20;;;;;;;;;;4974688;28;20046;-64
2022/07/28 07:42:44;;;;;;;4.32;0.80;;;;;;;;;;4988872;28;20042;-65
2022/07/28 07:45:10;;;;;;;2.15;0.93;;;;;;;;;;4991345;28;20039;-65
2022/07/28 07:47:36;;;;;;;2.47;0.90;;;;;;;;;;4988559;28;20050;-64
2022/07/28 07:50:02;;;;;;;5.93;1.00;;;;;;;;;;4987903;28;20034;-65
2022/07/28 07:52:28;;;;;;;4.38;0.90;;;;;;;;;;4991323;28;20038;-66
2022/07/28 07:54:55;;;;;;;8.88;0.80;;;;;;;;;;4993466;28;20513;-66
2022/07/28 07:57:20;;;;;;;2.35;0.90;;;;;;;;;;4992123;28;20038;-65
2022/07/28 07:59:46;;;;;;;4.20;0.80;;;;;;;;;;5000184;28;20412;-63
2022/07/28 08:02:13;;;;;;;3.30;0.98;;;;;;;;;;4999877;28;20039;-65
2022/07/28 08:04:39;;;;;;;2.60;0.90;;;;;;;;;;4993285;28;20038;-66
2022/07/28 08:07:05;;;;;;;4.05;0.98;;;;;;;;;;4992707;28;20130;-65
2022/07/28 08:09:32;;;;;;;3.35;0.57;;;;;;;;;;4995667;28;20038;-63
2022/07/28 08:11:58;;;;;;;2.53;0.73;;;;;;;;;;4992078;28;20378;-65
2022/07/28 08:14:24;;;;;;;2.13;0.68;;;;;;;;;;4991344;28;20053;-67
2022/07/28 08:16:51;;;;;;;2.90;0.70;;;;;;;;;;4991475;28;20042;-66
2022/07/28 08:19:17;;;;;;;3.08;0.65;;;;;;;;;;4994119;28;20084;-64
2022/07/28 08:21:43;;;;;;;2.60;0.90;;;;;;;;;;4996536;28;20121;-65
2022/07/28 08:24:09;;;;;;;3.03;0.70;;;;;;;;;;4994028;28;20495;-65
2022/07/28 08:26:35;;;;;;;3.50;0.70;;;;;;;;;;4990110;28;20646;-64
2022/07/28 08:29:02;;;;;;;1.95;0.60;;;;;;;;;;4989909;28;20034;-66
2022/07/28 08:31:28;;;;;;;4.97;1.15;;;;;;;;;;4991796;28;20046;-65
2022/07/28 08:33:54;;;;;;;4.93;1.23;;;;;;;;;;4992391;28;20117;-64
2022/07/28 08:36:20;;;;;;;3.05;0.80;;;;;;;;;;4988502;28;20043;-65
2022/07/28 08:38:46;;;;;;;1.50;0.70;;;;;;;;;;4992437;28;20046;-65
2022/07/28 08:41:17;;;;;;;2.60;0.80;;;;;;;;;;4990427;28;20054;-67
2022/07/28 08:43:44;;;;;;;2.47;0.77;;;;;;;;;;4994201;28;20165;-66
2022/07/28 08:46:10;;;;;;;3.95;0.80;;;;;;;;;;4990953;28;20047;-65
2022/07/28 08:48:37;;;;;;;2.25;0.70;;;;;;;;;;4977167;28;20054;-65
2022/07/28 08:51:05;;;;;;;3.55;0.82;;;;;;;;;;4991132;28;20058;-65
2022/07/28 08:53:31;;;;;;;2.35;0.90;;;;;;;;;;5003749;28;20046;-67
2022/07/28 08:56:04;;;;;;;1.65;1.00;;;;;;;;;;4990208;28;20743;-65
2022/07/28 08:58:31;;;;;;;2.63;0.70;;;;;;;;;;5004316;28;20469;-65
2022/07/28 09:00:58;;;;;;;3.60;1.35;;;;;;;;;;5010958;28;20057;-67
2022/07/28 09:03:24;;;;;;;2.03;1.00;;;;;;;;;;4992371;28;20042;-65
2022/07/28 09:05:51;;;;;;;4.05;1.20;;;;;;;;;;4996112;28;20042;-65
2022/07/28 09:08:18;;;;;;;3.22;0.90;;;;;;;;;;4993131;28;20054;-65
2022/07/28 09:10:44;;;;;;;3.42;1.00;;;;;;;;;;4994908;28;20149;-66
2022/07/28 09:13:10;;;;;;;4.55;1.02;;;;;;;;;;5001831;28;20484;-65
2022/07/28 09:15:36;;;;;;;6.03;0.90;;;;;;;;;;4997053;28;20750;-65
2022/07/28 09:18:03;;;;;;;5.05;1.05;;;;;;;;;;4998614;28;20077;-64
2022/07/28 09:20:29;;;;;;;1.95;1.13;;;;;;;;;;4978825;28;20416;-67
2022/07/28 09:23:05;;;;;;;5.43;0.90;;;;;;;;;;4992172;28;20623;-66
2022/07/28 09:25:32;;;;;;;3.40;0.90;;;;;;;;;;4999824;28;20083;-68
2022/07/28 09:28:10;;;;;;;2.58;1.15;;;;;;;;;;4964254;28;20073;-67
2022/07/28 09:30:39;;;;;;;4.70;0.82;;;;;;;;;;4993307;28;20039;-68
2022/07/28 09:33:11;;;;;;;3.55;1.02;;;;;;;;;;5003490;28;20050;-67
2022/07/28 09:35:47;;;;;;;4.55;1.08;;;;;;;;;;4995812;28;20097;-66
2022/07/28 09:38:14;;;;;;;2.45;0.98;;;;;;;;;;4989578;28;20092;-65
2022/07/28 09:40:41;;;;;;;4.20;1.10;;;;;;;;;;5008276;28;20085;-67
2022/07/28 09:43:08;;;;;;;3.22;1.10;;;;;;;;;;4991488;28;20129;-67
2022/07/28 09:45:34;;;;;;;4.07;1.08;;;;;;;;;;4986677;28;20362;-67
2022/07/28 09:48:11;;;;;;;2.38;0.90;;;;;;;;;;4988809;28;20046;-65
2022/07/28 09:50:37;;;;;;;5.68;1.05;;;;;;;;;;4973776;28;20046;-68
2022/07/28 09:53:23;;;;;;;3.88;1.02;;;;;;;;;;4987477;28;20043;-66
2022/07/28 09:55:56;;;;;;;5.13;0.95;;;;;;;;;;4990241;28;20049;-66
2022/07/28 09:58:22;;;;;;;4.05;0.93;;;;;;;;;;4990143;28;20496;-65
2022/07/28 10:00:48;;;;;;;3.42;1.02;;;;;;;;;;4987899;28;20045;-65
2022/07/28 10:03:24;;;;;;;1.67;0.80;;;;;;;;;;4988498;28;20046;-66
2022/07/28 10:05:50;;;;;;;1.67;0.93;;;;;;;;;;4986394;28;20049;-66
2022/07/28 10:08:17;;;;;;;6.07;1.20;;;;;;;;;;4956954;28;20050;-65
2022/07/28 10:10:57;;;;;;;2.45;0.90;;;;;;;;;;4998129;28;20118;-65
2022/07/28 10:13:23;;;;;;;3.97;0.90;;;;;;;;;;4987157;28;20073;-66
2022/07/28 10:16:10;;;;;;;1.58;0.85;;;;;;;;;;4998719;28;20084;-68
2022/07/28 10:18:38;;;;;;;3.70;0.90;;;;;;;;;;5007749;28;20089;-67
2022/07/28 10:21:06;;;;;;;1.85;1.08;;;;;;;;;;5002597;28;20050;-67
2022/07/28 10:23:33;;;;;;;3.33;1.02;;;;;;;;;;5000368;28;20042;-67
2022/07/28 10:26:01;;;;;;;3.47;0.98;;;;;;;;;;5001531;28;20047;-67
2022/07/28 10:28:28;;;;;;;5.75;1.33;;;;;;;;;;5006491;28;20106;-68
2022/07/28 10:30:57;;;;;;;2.78;0.82;;;;;;;;;;5005816;28;20073;-69
2022/07/28 10:33:24;;;;;;;1.63;0.93;;;;;;;;;;4991140;28;20112;-68
2022/07/28 10:35:50;;;;;;;1.73;0.80;;;;;;;;;;4990921;28;20073;-66
2022/07/28 10:38:16;;;;;;;4.03;1.15;;;;;;;;;;4991034;28;20038;-67
2022/07/28 10:40:45;;;;;;;3.55;1.00;;;;;;;;;;4979584;28;20046;-67
2022/07/28 10:43:11;;;;;;;6.00;1.08;;;;;;;;;;4991073;28;20477;-66
2022/07/28 10:45:38;;;;;;;3.55;1.02;;;;;;;;;;4990514;28;20102;-66
2022/07/28 10:48:04;;;;;;;4.25;1.13;;;;;;;;;;4990467;28;20050;-66
2022/07/28 10:50:31;;;;;;;5.50;1.38;;;;;;;;;;4990881;28;20113;-66
2022/07/28 10:52:57;;;;;;;2.28;0.95;;;;;;;;;;4991045;28;20709;-66
2022/07/28 10:55:45;;;;;;;1.98;0.85;;;;;;;;;;4991131;28;20049;-65
2022/07/28 10:58:16;;;;;;;3.58;0.85;;;;;;;;;;4989845;28;20030;-66
2022/07/28 11:00:44;;;;;;;4.80;1.20;;;;;;;;;;4990689;28;20177;-65
2022/07/28 11:03:10;;;;;;;2.17;0.95;;;;;;;;;;4990714;28;20096;-67
2022/07/28 11:05:38;;;;;;;3.28;1.00;;;;;;;;;;4990686;28;20046;-68
2022/07/28 11:08:04;;;;;;;4.78;1.10;;;;;;;;;;4973154;28;20038;-68
2022/07/28 11:10:42;;;;;;;5.05;1.52;;;;;;;;;;4991374;28;20168;-68
2022/07/28 11:13:21;;;;;;;3.20;0.80;;;;;;;;;;4990089;28;20048;-68
2022/07/28 11:15:47;;;;;;;2.47;0.88;;;;;;;;;;4988152;28;20478;-69
2022/07/28 11:18:13;;;;;;;1.40;0.70;;;;;;;;;;4983786;28;20489;-69
2022/07/28 11:20:52;;;;;;;3.78;1.10;;;;;;;;;;4985234;28;20038;-69
2022/07/28 11:23:36;;;;;;;5.32;1.13;;;;;;;;;;4984082;28;20046;-67
2022/07/28 11:26:21;;;;;;;1.67;0.80;;;;;;;;;;4990812;28;20042;-65
2022/07/28 11:28:59;;;;;;;5.20;0.98;;;;;;;;;;4993894;28;20133;-65
2022/07/28 11:31:44;;;;;;;4.38;0.70;;;;;;;;;;4993150;28;20097;-66
2022/07/28 11:34:10;;;;;;;4.47;0.70;;;;;;;;;;4994026;28;20038;-67
2022/07/28 11:36:55;;;;;;;3.92;1.10;;;;;;;;;;4976304;28;20609;-67
2022/07/28 11:39:22;;;;;;;3.78;0.98;;;;;;;;;;4994389;28;20136;-67
2022/07/28 11:41:48;;;;;;;1.15;0.85;;;;;;;;;;4994613;28;20042;-67
2022/07/28 11:44:27;;;;;;;3.80;1.05;;;;;;;;;;4993599;28;20391;-67
2022/07/28 11:46:53;;;;;;;4.03;0.93;;;;;;;;;;4994118;28;20081;-67
2022/07/28 11:49:21;;;;;;;1.67;0.80;;;;;;;;;;4993896;28;20046;-67
2022/07/28 11:52:05;;;;;;;4.50;0.80;;;;;;;;;;4994208;28;20053;-67
2022/07/28 11:54:31;;;;;;;2.85;0.98;;;;;;;;;;4975074;28;20043;-67
2022/07/28 11:56:58;;;;;;;3.78;0.85;;;;;;;;;;4994689;28;20050;-67
2022/07/28 11:59:24;;;;;;;3.92;0.93;;;;;;;;;;4993847;28;20034;-67
2022/07/28 12:01:51;;;;;;;1.50;0.63;;;;;;;;;;4995196;28;20057;-67
2022/07/28 12:04:18;;;;;;;2.03;0.70;;;;;;;;;;4993701;28;20081;-67
2022/07/28 12:06:45;;;;;;;5.65;0.75;;;;;;;;;;4993715;28;20046;-66
2022/07/28 12:09:16;;;;;;;2.78;0.70;;;;;;;;;;4991389;28;20134;-67
2022/07/28 12:11:45;;;;;;;5.03;1.13;;;;;;;;;;4985280;28;20488;-65
2022/07/28 12:14:15;;;;;;;1.30;0.70;;;;;;;;;;5006152;28;20577;-67
2022/07/28 12:16:42;;;;;;;2.25;0.85;;;;;;;;;;4994772;28;20887;-66
2022/07/28 12:19:09;;;;;;;4.97;0.80;;;;;;;;;;4995022;28;20049;-66
2022/07/28 12:21:35;;;;;;;4.72;0.80;;;;;;;;;;4992972;28;20436;-65
2022/07/28 12:24:01;;;;;;;2.33;0.85;;;;;;;;;;4989839;28;20516;-67
2022/07/28 12:26:31;;;;;;;4.68;0.90;;;;;;;;;;4992656;28;20173;-68
2022/07/28 12:28:58;;;;;;;3.00;0.82;;;;;;;;;;5006695;28;20046;-67
2022/07/28 12:31:28;;;;;;;1.92;0.80;;;;;;;;;;5000182;28;20392;-67
2022/07/28 12:33:55;;;;;;;2.42;1.15;;;;;;;;;;5001275;28;20045;-66
2022/07/28 12:36:22;;;;;;;3.85;0.82;;;;;;;;;;4993645;28;20504;-66
2022/07/28 12:38:50;;;;;;;1.33;0.60;;;;;;;;;;5000846;28;20054;-66
2022/07/28 12:41:16;;;;;;;2.92;1.00;;;;;;;;;;4991733;28;20054;-67
2022/07/28 12:43:49;;;;;;;3.65;0.90;;;;;;;;;;4990906;28;20049;-64
2022/07/28 12:46:22;;;;;;;2.85;1.08;;;;;;;;;;4995938;28;20053;-65
2022/07/28 12:48:49;;;;;;;2.90;0.90;;;;;;;;;;5004975;28;20372;-64
2022/07/28 12:51:31;;;;;;;1.23;0.60;;;;;;;;;;4995187;28;20042;-65
2022/07/28 12:53:57;;;;;;;7.20;1.05;;;;;;;;;;4994667;28;20050;-64
2022/07/28 12:56:23;;;;;;;1.98;0.70;;;;;;;;;;4990118;28;20046;-63
2022/07/28 12:59:02;;;;;;;3.63;0.80;;;;;;;;;;4991538;28;20042;-65
2022/07/28 13:01:43;;;;;;;2.00;0.63;;;;;;;;;;4999018;28;20497;-65
2022/07/28 13:04:09;;;;;;;0.85;0.80;;;;;;;;;;4996907;28;20080;-65
2022/07/28 13:06:35;;;;;;;2.78;0.88;;;;;;;;;;4976062;28;20047;-65
2022/07/28 13:09:01;;;;;;;1.10;0.65;;;;;;;;;;4997770;28;20449;-64
2022/07/28 13:11:30;;;;;;;1.00;0.50;;;;;;;;;;4992452;28;20082;-63
2022/07/28 13:13:56;;;;;;;1.70;0.60;;;;;;;;;;4998065;28;20089;-63
2022/07/28 13:16:23;;;;;;;2.10;0.70;;;;;;;;;;4981167;28;20453;-65
2022/07/28 13:18:53;;;;;;;0.98;0.60;;;;;;;;;;5010993;28;20045;-64
2022/07/28 13:21:40;;;;;;;1.65;0.80;;;;;;;;;;4998219;28;20050;-64
2022/07/28 13:24:06;;;;;;;0.93;0.70;;;;;;;;;;4994479;28;20444;-64
2022/07/28 13:26:32;;;;;;;4.68;0.75;;;;;;;;;;5002698;28;20399;-64
2022/07/28 13:28:59;;;;;;;2.05;0.70;;;;;;;;;;4997540;28;20129;-65
2022/07/28 13:31:25;;;;;;;1.98;0.70;;;;;;;;;;5001967;28;20074;-64
2022/07/28 13:33:51;;;;;;;2.42;0.93;;;;;;;;;;4993387;28;20030;-63
2022/07/28 13:36:17;;;;;;;1.90;0.60;;;;;;;;;;5009665;28;20149;-65
2022/07/28 13:38:43;;;;;;;2.80;0.80;;;;;;;;;;5011639;28;20122;-64
2022/07/28 13:41:10;;;;;;;3.35;0.70;;;;;;;;;;5010462;28;20096;-64
2022/07/28 13:43:36;;;;;;;2.10;0.80;;;;;;;;;;4999422;28;20050;-64
2022/07/28 13:46:02;;;;;;;3.08;0.80;;;;;;;;;;4993901;28;20531;-65
2022/07/28 13:48:29;;;;;;;1.60;0.65;;;;;;;;;;4988098;28;20042;-65
2022/07/28 13:50:55;;;;;;;3.33;0.70;;;;;;;;;;4990026;28;20054;-64
2022/07/28 13:53:33;;;;;;;4.13;0.70;;;;;;;;;;4990920;28;20727;-64
2022/07/28 13:55:59;;;;;;;3.88;0.85;;;;;;;;;;4988177;28;20050;-64
2022/07/28 13:58:25;;;;;;;4.35;0.95;;;;;;;;;;4989150;28;20493;-64
2022/07/28 14:00:52;;;;;;;2.53;0.80;;;;;;;;;;4988898;28;20733;-64
2022/07/28 14:03:18;;;;;;;1.33;0.63;;;;;;;;;;4988519;28;20050;-64
2022/07/28 14:05:44;;;;;;;1.13;0.73;;;;;;;;;;4990007;28;20066;-64
2022/07/28 14:08:11;;;;;;;1.95;0.70;;;;;;;;;;4991696;28;20043;-64
2022/07/28 14:10:37;;;;;;;1.77;0.70;;;;;;;;;;4990984;28;20046;-66
2022/07/28 14:13:04;;;;;;;1.80;0.70;;;;;;;;;;4991848;28;20125;-66
2022/07/28 14:15:29;;;;;;;1.10;0.60;;;;;;;;;;4991800;28;20038;-64
2022/07/28 14:17:56;;;;;;;3.67;0.90;;;;;;;;;;4987834;28;20117;-66
2022/07/28 14:20:22;;;;;;;1.77;0.82;;;;;;;;;;5003915;28;20108;-65
2022/07/28 14:22:48;;;;;;;1.20;0.70;;;;;;;;;;4993138;28;20453;-63
2022/07/28 14:25:14;;;;;;;2.33;0.80;;;;;;;;;;4995760;28;20108;-63
2022/07/28 14:27:40;;;;;;;0.65;0.50;;;;;;;;;;4986993;28;20039;-64
2022/07/28 14:30:07;;;;;;;4.47;1.13;;;;;;;;;;4986759;28;20129;-64
2022/07/28 14:32:33;;;;;;;5.35;0.93;;;;;;;;;;4975169;28;20038;-64
2022/07/28 14:34:59;;;;;;;5.28;0.70;;;;;;;;;;4988377;28;20509;-65
2022/07/28 14:37:25;;;;;;;1.85;0.82;;;;;;;;;;4991947;28;20045;-65
2022/07/28 14:39:51;;;;;;;3.90;0.80;;;;;;;;;;4988919;28;20064;-65
2022/07/28 14:42:18;;;;;;;1.55;0.75;;;;;;;;;;4985635;28;20081;-66
2022/07/28 14:44:44;;;;;;;3.60;0.90;;;;;;;;;;4992016;28;20045;-66
2022/07/28 14:47:10;;;;;;;3.42;0.75;;;;;;;;;;4991052;28;20054;-67